createdAt,value
2019-03-23T00:01:49.339Z,15.87
2019-03-23T00:04:19.532Z,14.37
2019-03-23T00:06:54.551Z,16.47
2019-03-23T00:09:24.272Z,15.53
2019-03-23T00:11:50.340Z,15.40
2019-03-23T00:14:16.660Z,15.67
2019-03-23T00:16:42.951Z,16.57
2019-03-23T00:19:12.060Z,16.63
2019-03-23T00:21:38.010Z,17.50
2019-03-23T00:24:04.373Z,17.70
2019-03-23T00:26:30.702Z,17.10
2019-03-23T00:29:06.166Z,18.03
2019-03-23T00:31:36.404Z,16.23
2019-03-23T00:34:01.684Z,16.23
2019-03-23T00:36:40.784Z,16.43
2019-03-23T00:38:59.212Z,16.20
2019-03-23T00:41:26.698Z,16.77
2019-03-23T00:43:52.870Z,17.20
2019-03-23T00:46:20.943Z,16.10
2019-03-23T00:48:47.234Z,17.70
2019-03-23T00:51:13.422Z,16.37
2019-03-23T00:53:42.300Z,15.33
2019-03-23T00:56:09.518Z,16.60
2019-03-23T00:58:39.159Z,16.50
2019-03-23T01:01:07.226Z,15.97
2019-03-23T01:03:33.593Z,16.77
2019-03-23T01:05:59.764Z,17.30
2019-03-23T01:08:26.150Z,16.60
2019-03-23T01:10:53.600Z,15.83
2019-03-23T01:13:20.622Z,17.33
2019-03-23T01:15:48.133Z,18.33
2019-03-23T01:18:14.390Z,15.57
2019-03-23T01:20:49.313Z,15.20
2019-03-23T01:23:09.533Z,16.67
2019-03-23T01:25:35.666Z,18.80
2019-03-23T01:28:02.528Z,15.33
2019-03-23T01:30:30.650Z,14.53
2019-03-23T01:32:58.930Z,16.30
2019-03-23T01:35:25.182Z,15.63
2019-03-23T01:37:51.568Z,16.53
2019-03-23T01:40:17.615Z,16.27
2019-03-23T01:42:48.154Z,16.57
2019-03-23T01:45:14.007Z,15.33
2019-03-23T01:47:40.201Z,18.20
2019-03-23T01:50:08.588Z,16.43
2019-03-23T01:52:34.849Z,15.70
2019-03-23T01:55:00.956Z,19.17
2019-03-23T01:57:27.099Z,17.40
2019-03-23T01:59:57.310Z,17.47
2019-03-23T02:02:23.400Z,16.40
2019-03-23T02:04:50.651Z,15.70
2019-03-23T02:07:19.070Z,16.83
2019-03-23T02:09:46.399Z,17.37
2019-03-23T02:12:12.480Z,17.17
2019-03-23T02:14:39.834Z,16.47
2019-03-23T02:17:05.861Z,16.17
2019-03-23T02:19:31.965Z,17.87
2019-03-23T02:22:01.692Z,16.57
2019-03-23T02:24:27.812Z,17.03
2019-03-23T02:26:55.583Z,17.23
2019-03-23T02:29:22.006Z,17.10
2019-03-23T02:31:48.128Z,18.10
2019-03-23T02:34:16.139Z,18.27
2019-03-23T02:36:43.577Z,17.07
2019-03-23T02:39:09.786Z,17.13
2019-03-23T02:41:38.805Z,17.43
2019-03-23T02:44:06.196Z,15.87
2019-03-23T02:46:32.439Z,16.87
2019-03-23T02:49:01.962Z,16.03
2019-03-23T02:51:30.272Z,16.73
2019-03-23T02:53:57.468Z,16.53
2019-03-23T02:56:23.515Z,17.23
2019-03-23T02:58:51.450Z,15.43
2019-03-23T03:01:17.497Z,15.63
2019-03-23T03:03:45.502Z,15.33
2019-03-23T03:06:12.697Z,15.33
2019-03-23T03:08:38.918Z,16.33
2019-03-23T03:11:07.065Z,14.40
2019-03-23T03:13:33.493Z,14.03
2019-03-23T03:16:00.007Z,14.33
2019-03-23T03:18:26.134Z,13.00
2019-03-23T03:20:52.189Z,14.30
2019-03-23T03:23:18.304Z,15.23
2019-03-23T03:25:44.383Z,14.87
2019-03-23T03:28:10.639Z,15.30
2019-03-23T03:30:38.982Z,13.67
2019-03-23T03:33:05.041Z,15.00
2019-03-23T03:35:31.166Z,15.30
2019-03-23T03:37:57.524Z,14.60
2019-03-23T03:40:24.042Z,15.77
2019-03-23T03:42:50.287Z,15.63
2019-03-23T03:45:25.742Z,14.60
2019-03-23T03:47:51.948Z,14.73
2019-03-23T03:50:18.069Z,15.33
2019-03-23T03:52:45.535Z,15.63
2019-03-23T03:55:16.356Z,20.10
2019-03-23T03:57:45.093Z,17.10
2019-03-23T04:00:13.815Z,15.40
2019-03-23T04:02:42.551Z,15.87
2019-03-23T04:05:10.312Z,16.07
2019-03-23T04:07:36.463Z,15.40
2019-03-23T04:10:08.258Z,17.10
2019-03-23T04:12:36.176Z,16.80
2019-03-23T04:15:08.094Z,16.10
2019-03-23T04:17:37.220Z,16.90
2019-03-23T04:20:06.175Z,18.00
2019-03-23T04:22:32.306Z,16.30
2019-03-23T04:24:59.168Z,16.00
2019-03-23T04:27:25.482Z,15.23
2019-03-23T04:29:53.452Z,15.63
2019-03-23T04:32:19.626Z,15.80
2019-03-23T04:34:47.158Z,16.13
2019-03-23T04:37:13.277Z,17.73
2019-03-23T04:39:39.309Z,16.53
2019-03-23T04:42:09.497Z,16.57
2019-03-23T04:44:35.559Z,16.93
2019-03-23T04:47:03.818Z,17.43
2019-03-23T04:49:29.928Z,17.00
2019-03-23T04:51:55.962Z,17.40
2019-03-23T04:54:23.389Z,16.13
2019-03-23T04:56:51.596Z,15.73
2019-03-23T04:59:22.048Z,16.07
2019-03-23T05:01:48.186Z,17.37
2019-03-23T05:04:15.826Z,17.27
2019-03-23T05:06:43.132Z,17.87
2019-03-23T05:09:12.076Z,17.23
2019-03-23T05:11:38.209Z,17.30
2019-03-23T05:14:06.161Z,17.10
2019-03-23T05:16:32.307Z,15.63
2019-03-23T05:18:58.610Z,15.73
2019-03-23T05:21:24.802Z,16.63
2019-03-23T05:23:51.072Z,18.00
2019-03-23T05:26:17.189Z,17.27
2019-03-23T05:28:43.331Z,17.67
2019-03-23T05:31:10.887Z,17.40
2019-03-23T05:33:37.314Z,16.60
2019-03-23T05:36:03.450Z,17.10
2019-03-23T05:38:31.164Z,16.83
2019-03-23T05:40:57.361Z,17.10
2019-03-23T05:43:23.457Z,17.53
2019-03-23T05:45:49.564Z,17.30
2019-03-23T05:48:17.896Z,17.13
2019-03-23T05:50:44.123Z,15.23
2019-03-23T05:53:10.368Z,15.90
2019-03-23T05:55:36.945Z,15.10
2019-03-23T05:58:08.973Z,17.10
2019-03-23T06:00:35.122Z,17.47
2019-03-23T06:03:01.212Z,16.00
2019-03-23T06:05:28.002Z,16.90
2019-03-23T06:07:54.831Z,18.93
2019-03-23T06:10:22.478Z,17.40
2019-03-23T06:12:49.537Z,17.53
2019-03-23T06:15:16.149Z,17.40
2019-03-23T06:17:42.321Z,17.50
2019-03-23T06:20:08.652Z,17.40
2019-03-23T06:22:37.598Z,18.00
2019-03-23T06:25:05.094Z,17.53
2019-03-23T06:27:32.468Z,18.10
2019-03-23T06:29:58.600Z,18.90
2019-03-23T06:32:24.729Z,18.23
2019-03-23T06:34:53.246Z,18.93
2019-03-23T06:37:19.498Z,18.60
2019-03-23T06:39:45.716Z,19.80
2019-03-23T06:42:11.788Z,18.40
2019-03-23T06:44:38.785Z,19.80
2019-03-23T06:47:04.918Z,18.97
2019-03-23T06:49:42.117Z,18.77
2019-03-23T06:52:08.245Z,17.80
2019-03-23T06:54:34.305Z,17.53
2019-03-23T06:57:01.394Z,19.53
2019-03-23T06:59:27.608Z,21.50
2019-03-23T07:01:54.176Z,19.70
2019-03-23T07:04:21.823Z,23.50
2019-03-23T07:06:47.892Z,19.77
2019-03-23T07:09:16.416Z,18.20
2019-03-23T07:11:44.772Z,20.53
2019-03-23T07:14:10.847Z,18.13
2019-03-23T07:16:37.172Z,19.00
2019-03-23T07:19:03.488Z,20.27
2019-03-23T07:21:29.849Z,19.43
2019-03-23T07:23:56.267Z,22.20
2019-03-23T07:26:23.803Z,21.03
2019-03-23T07:28:56.042Z,21.40
2019-03-23T07:31:24.484Z,21.87
2019-03-23T07:33:50.581Z,24.07
2019-03-23T07:36:19.254Z,24.37
2019-03-23T07:38:50.022Z,21.77
2019-03-23T07:41:18.233Z,22.07
2019-03-23T07:43:46.225Z,21.57
2019-03-23T07:46:15.779Z,20.70
2019-03-23T07:48:42.925Z,22.40
2019-03-23T07:51:09.015Z,21.70
2019-03-23T07:53:35.088Z,20.50
2019-03-23T07:56:01.170Z,22.80
2019-03-23T07:58:27.260Z,22.43
2019-03-23T08:00:55.200Z,23.10
2019-03-23T08:03:23.344Z,22.20
2019-03-23T08:05:49.462Z,22.40
2019-03-23T08:08:20.237Z,21.10
2019-03-23T08:10:48.027Z,20.83
2019-03-23T08:13:14.161Z,22.73
2019-03-23T08:15:40.622Z,22.90
2019-03-23T08:18:06.993Z,22.90
2019-03-23T08:20:33.053Z,23.00
2019-03-23T08:22:59.427Z,22.83
2019-03-23T08:25:33.617Z,22.40
2019-03-23T08:27:57.217Z,22.80
2019-03-23T08:30:23.665Z,22.70
2019-03-23T08:32:51.986Z,21.40
2019-03-23T08:35:20.042Z,20.90
2019-03-23T08:37:48.489Z,22.53
2019-03-23T08:40:16.767Z,25.90
2019-03-23T08:42:43.956Z,21.93
2019-03-23T08:45:11.615Z,22.33
2019-03-23T08:47:38.037Z,22.00
2019-03-23T08:50:10.025Z,23.47
2019-03-23T08:52:41.375Z,22.13
2019-03-23T08:55:09.891Z,21.80
2019-03-23T08:57:36.126Z,22.23
2019-03-23T09:00:04.514Z,22.00
2019-03-23T09:02:34.431Z,22.00
2019-03-23T09:05:00.738Z,21.43
2019-03-23T09:07:27.973Z,21.00
2019-03-23T09:09:59.387Z,22.57
2019-03-23T09:12:23.897Z,24.60
2019-03-23T09:14:50.085Z,21.73
2019-03-23T09:17:18.219Z,23.40
2019-03-23T09:19:48.424Z,22.67
2019-03-23T09:22:15.555Z,23.73
2019-03-23T09:24:41.812Z,22.57
2019-03-23T09:27:08.955Z,23.07
2019-03-23T09:29:37.105Z,24.80
2019-03-23T09:32:03.408Z,24.23
2019-03-23T09:34:30.961Z,26.10
2019-03-23T09:36:58.476Z,25.77
2019-03-23T09:39:24.791Z,25.07
2019-03-23T09:41:51.974Z,24.40
2019-03-23T09:44:19.194Z,25.50
2019-03-23T09:46:50.528Z,25.90
2019-03-23T09:49:22.063Z,27.60
2019-03-23T09:51:47.592Z,26.40
2019-03-23T09:54:13.740Z,25.63
2019-03-23T09:56:43.195Z,27.33
2019-03-23T09:59:09.324Z,26.60
2019-03-23T10:01:38.441Z,25.13
2019-03-23T10:04:04.978Z,25.20
2019-03-23T10:06:32.846Z,26.40
2019-03-23T10:09:02.385Z,25.50
2019-03-23T10:11:28.813Z,26.87
2019-03-23T10:13:56.274Z,23.83
2019-03-23T10:16:23.708Z,25.43
2019-03-23T10:18:49.930Z,25.03
2019-03-23T10:21:17.921Z,24.80
2019-03-23T10:23:46.197Z,24.63
2019-03-23T10:26:12.319Z,25.40
2019-03-23T10:28:38.400Z,27.40
2019-03-23T10:31:04.882Z,27.27
2019-03-23T10:33:30.960Z,27.13
2019-03-23T10:36:00.220Z,27.07
2019-03-23T10:38:36.680Z,27.07
2019-03-23T10:41:00.681Z,25.60
2019-03-23T10:43:28.213Z,27.53
2019-03-23T10:45:54.310Z,29.57
2019-03-23T10:48:21.048Z,28.57
2019-03-23T10:50:48.502Z,28.67
2019-03-23T10:53:22.826Z,30.37
2019-03-23T10:55:48.081Z,27.57
2019-03-23T10:58:14.153Z,28.60
2019-03-23T11:00:41.718Z,30.70
2019-03-23T11:03:09.069Z,29.63
2019-03-23T11:05:35.229Z,30.67
2019-03-23T11:08:01.423Z,28.97
2019-03-23T11:10:28.020Z,28.27
2019-03-23T11:12:54.241Z,29.70
2019-03-23T11:15:22.598Z,31.93
2019-03-23T11:17:48.827Z,30.47
2019-03-23T11:20:15.093Z,29.13
2019-03-23T11:22:41.358Z,29.40
2019-03-23T11:25:10.084Z,30.03
2019-03-23T11:27:37.631Z,30.87
2019-03-23T11:30:07.599Z,32.23
2019-03-23T11:32:33.999Z,30.70
2019-03-23T11:35:00.580Z,33.87
2019-03-23T11:37:28.606Z,31.77
2019-03-23T11:39:55.029Z,30.53
2019-03-23T11:42:21.317Z,31.30
2019-03-23T11:44:50.044Z,31.37
2019-03-23T11:47:16.386Z,29.90
2019-03-23T11:49:42.633Z,29.90
2019-03-23T11:52:10.614Z,29.90
2019-03-23T11:54:36.698Z,32.97
2019-03-23T11:57:07.256Z,30.97
2019-03-23T12:20:48.357Z,30.33
2019-03-23T12:23:16.238Z,31.23
2019-03-23T12:26:03.431Z,30.30
2019-03-23T12:28:29.928Z,30.73
2019-03-23T12:30:56.402Z,30.97
2019-03-23T12:39:30.559Z,32.30
2019-03-23T12:53:50.436Z,34.10
2019-03-23T13:05:19.043Z,32.90
2019-03-23T13:11:23.083Z,34.20
2019-03-23T13:17:14.322Z,29.67
2019-03-23T13:25:08.010Z,31.20
2019-03-23T13:34:17.333Z,33.37
2019-03-23T13:39:37.519Z,33.07
2019-03-23T13:54:47.713Z,31.47
2019-03-23T14:12:02.086Z,33.50
2019-03-23T14:14:44.597Z,32.30
2019-03-23T14:17:11.038Z,31.63
2019-03-23T14:19:56.999Z,31.37
2019-03-23T14:22:43.183Z,31.77
2019-03-23T14:25:26.057Z,30.80
2019-03-23T14:28:08.198Z,32.57
2019-03-23T14:30:35.198Z,33.10
2019-03-23T14:51:39.639Z,31.73
2019-03-23T14:57:17.254Z,34.10
2019-03-23T14:59:56.984Z,34.50
2019-03-23T15:02:38.852Z,34.90
2019-03-23T15:05:21.396Z,37.83
2019-03-23T15:08:01.256Z,36.70
2019-03-23T15:10:41.362Z,37.60
2019-03-23T15:13:20.478Z,38.03
2019-03-23T15:15:59.783Z,35.37
2019-03-23T15:18:41.562Z,38.33
2019-03-23T15:23:56.491Z,37.60
2019-03-23T15:26:43.964Z,38.90
2019-03-23T15:29:31.138Z,39.70
2019-03-23T15:37:44.698Z,40.40
2019-03-23T15:40:26.758Z,40.20
2019-03-23T15:43:05.879Z,46.23
2019-03-23T15:45:32.623Z,42.13
2019-03-23T15:47:59.437Z,42.13
2019-03-23T15:53:42.269Z,41.70
2019-03-23T15:59:17.154Z,41.13
2019-03-23T16:02:01.265Z,41.47
2019-03-23T16:07:30.376Z,41.33
2019-03-23T16:10:11.882Z,41.40
2019-03-23T16:15:39.030Z,40.97
2019-03-23T16:24:02.649Z,41.33
2019-03-23T16:29:30.951Z,44.17
2019-03-23T16:35:02.511Z,43.37
2019-03-23T16:40:27.869Z,42.90
2019-03-23T16:43:08.340Z,45.83
2019-03-23T16:45:51.305Z,44.27
2019-03-23T16:48:32.817Z,43.50
2019-03-23T17:08:25.421Z,45.10
2019-03-23T17:16:29.696Z,45.47
2019-03-23T17:19:16.353Z,44.67
2019-03-23T17:22:24.154Z,46.37
2019-03-23T17:25:05.241Z,45.93
2019-03-23T17:27:46.445Z,45.30
2019-03-23T17:36:08.525Z,44.70
2019-03-23T17:41:41.600Z,46.53
2019-03-23T17:44:24.714Z,47.70
2019-03-23T17:47:17.225Z,44.87
2019-03-23T17:49:40.018Z,47.13
2019-03-23T17:55:04.046Z,47.03
2019-03-23T17:57:44.842Z,48.27
2019-03-23T18:00:26.160Z,47.07
2019-03-23T18:03:07.654Z,50.87
2019-03-23T18:05:50.771Z,48.77
2019-03-23T18:08:34.615Z,52.00
2019-03-23T18:11:14.530Z,45.93
2019-03-23T18:13:54.723Z,46.63
2019-03-23T18:16:34.936Z,50.97
2019-03-23T18:19:17.879Z,48.10
2019-03-23T18:27:38.489Z,42.97
2019-03-23T18:30:19.143Z,48.67
2019-03-23T18:32:59.580Z,50.23
2019-03-23T18:35:41.452Z,42.73
2019-03-23T18:41:09.544Z,42.37
2019-03-23T18:46:34.530Z,36.87
2019-03-23T18:49:14.740Z,35.57
2019-03-23T18:51:54.738Z,37.90
2019-03-23T18:54:37.353Z,32.67
2019-03-23T18:57:20.072Z,33.07
2019-03-23T19:00:00.056Z,32.23
2019-03-23T19:02:39.100Z,32.33
2019-03-23T19:05:19.156Z,31.37
2019-03-23T19:10:51.459Z,31.60
2019-03-23T19:16:18.695Z,34.87
2019-03-23T19:30:24.549Z,28.60
2019-03-23T19:36:12.590Z,30.80
2019-03-23T19:41:44.993Z,28.50
2019-03-23T19:44:25.299Z,28.20
2019-03-23T19:47:07.307Z,26.30
2019-03-23T19:49:48.239Z,34.30
2019-03-23T19:55:22.042Z,30.83
2019-03-23T20:00:52.540Z,27.97
2019-03-23T20:03:20.447Z,30.57
2019-03-23T20:05:46.861Z,26.83
2019-03-23T20:08:55.669Z,26.23
2019-03-23T20:11:36.839Z,28.10
2019-03-23T20:17:06.894Z,28.37
2019-03-23T20:22:31.438Z,27.53
2019-03-23T20:25:15.436Z,28.07
2019-03-23T20:27:59.333Z,27.07
2019-03-23T20:30:37.117Z,27.30
2019-03-23T20:33:19.674Z,28.00
2019-03-23T20:36:00.202Z,26.70
2019-03-23T20:41:39.880Z,25.73
2019-03-23T20:44:19.873Z,27.37
2019-03-23T20:46:59.615Z,27.77
2019-03-23T20:49:42.057Z,28.77
2019-03-23T20:52:22.807Z,31.00
2019-03-23T20:55:02.552Z,27.50
2019-03-23T20:57:37.014Z,28.37
2019-03-23T21:00:16.849Z,26.00
2019-03-23T21:03:02.949Z,28.20
2019-03-23T21:14:02.940Z,28.87
2019-03-23T21:16:46.260Z,27.13
2019-03-23T21:22:14.341Z,26.40
2019-03-23T21:24:55.022Z,28.47
2019-03-23T21:27:34.093Z,30.33
2019-03-23T21:30:17.367Z,28.03
2019-03-23T21:32:57.531Z,28.70
2019-03-23T21:38:26.956Z,28.53
2019-03-23T21:43:52.593Z,28.80
2019-03-23T21:49:30.948Z,28.40
2019-03-23T21:54:59.477Z,26.53
2019-03-23T21:57:38.772Z,28.83
2019-03-23T22:00:18.681Z,30.20
2019-03-23T22:03:01.827Z,29.97
2019-03-23T22:08:29.800Z,28.93
2019-03-23T22:11:15.661Z,28.70
2019-03-23T22:16:39.761Z,28.23
2019-03-23T22:22:03.020Z,29.40
2019-03-23T22:24:47.214Z,31.47
2019-03-23T22:27:30.908Z,30.60
2019-03-23T22:30:11.321Z,31.47
2019-03-23T22:35:40.173Z,30.20
2019-03-23T22:41:07.224Z,29.60
2019-03-23T22:49:25.654Z,30.57
2019-03-23T22:57:44.335Z,30.57
2019-03-23T23:00:52.078Z,30.60
2019-03-23T23:03:40.152Z,32.93
2019-03-23T23:06:22.204Z,31.17
2019-03-23T23:09:03.571Z,30.80
2019-03-23T23:11:29.632Z,29.53
2019-03-23T23:19:56.480Z,30.57
2019-03-23T23:22:23.864Z,31.47
2019-03-23T23:28:04.932Z,32.20
2019-03-23T23:33:05.575Z,34.30
2019-03-23T23:38:46.819Z,32.20
2019-03-23T23:41:27.768Z,30.87
2019-03-23T23:46:51.005Z,41.30
2019-03-23T23:49:31.060Z,33.57
2019-03-23T23:52:10.863Z,33.90
2019-03-23T23:57:42.844Z,33.40
